sensor_id;sensor_type;location;lat;lon;timestamp;pressure;altitude;pressure_sealevel;temperature;humidity
78229;BME280;74448;49.082;9.152;2024-03-07T00:00:11;99937.75;;;8.85;65.49
78229;BME280;74448;49.082;9.152;2024-03-07T00:02:47;99937.03;;;8.83;65.47
78229;BME280;74448;49.082;9.152;2024-03-07T00:05:18;99938.88;;;8.81;65.57
78229;BME280;74448;49.082;9.152;2024-03-07T00:07:45;99938.88;;;8.81;65.47
78229;BME280;74448;49.082;9.152;2024-03-07T00:10:13;99934.56;;;8.80;65.34
78229;BME280;74448;49.082;9.152;2024-03-07T00:12:43;99947.75;;;8.80;65.91
78229;BME280;74448;49.082;9.152;2024-03-07T00:15:11;99939.00;;;8.80;65.55
78229;BME280;74448;49.082;9.152;2024-03-07T00:17:39;99938.31;;;8.76;65.48
78229;BME280;74448;49.082;9.152;2024-03-07T00:20:07;99937.38;;;8.77;65.53
78229;BME280;74448;49.082;9.152;2024-03-07T00:22:41;99946.13;;;8.78;65.30
78229;BME280;74448;49.082;9.152;2024-03-07T00:25:08;99926.09;;;8.75;65.55
78229;BME280;74448;49.082;9.152;2024-03-07T00:27:36;99924.47;;;8.72;65.52
78229;BME280;74448;49.082;9.152;2024-03-07T00:30:04;99943.75;;;8.73;65.54
78229;BME280;74448;49.082;9.152;2024-03-07T00:32:31;99942.06;;;8.72;65.51
78229;BME280;74448;49.082;9.152;2024-03-07T00:35:02;99939.53;;;8.70;65.44
78229;BME280;74448;49.082;9.152;2024-03-07T00:37:29;99920.75;;;8.61;65.35
78229;BME280;74448;49.082;9.152;2024-03-07T00:39:57;99934.28;;;8.70;65.39
78229;BME280;74448;49.082;9.152;2024-03-07T00:42:24;99937.06;;;8.67;65.50
78229;BME280;74448;49.082;9.152;2024-03-07T00:44:51;99944.03;;;8.68;65.58
78229;BME280;74448;49.082;9.152;2024-03-07T00:47:17;99935.56;;;8.63;65.44
78229;BME280;74448;49.082;9.152;2024-03-07T00:49:44;99931.97;;;8.64;65.67
78229;BME280;74448;49.082;9.152;2024-03-07T00:52:14;99931.97;;;8.64;65.55
78229;BME280;74448;49.082;9.152;2024-03-07T00:54:42;99929.63;;;8.60;65.56
78229;BME280;74448;49.082;9.152;2024-03-07T00:57:08;99930.47;;;8.60;65.29
78229;BME280;74448;49.082;9.152;2024-03-07T00:59:35;99929.78;;;8.57;65.49
78229;BME280;74448;49.082;9.152;2024-03-07T01:02:02;99937.63;;;8.58;65.65
78229;BME280;74448;49.082;9.152;2024-03-07T01:04:28;99935.00;;;8.58;65.48
78229;BME280;74448;49.082;9.152;2024-03-07T01:06:57;99936.00;;;8.56;65.56
78229;BME280;74448;49.082;9.152;2024-03-07T01:09:25;99926.41;;;8.55;65.53
78229;BME280;74448;49.082;9.152;2024-03-07T01:11:54;99924.72;;;8.54;65.62
78229;BME280;74448;49.082;9.152;2024-03-07T01:14:22;99926.50;;;8.53;65.52
78229;BME280;74448;49.082;9.152;2024-03-07T01:16:49;99929.16;;;8.53;65.55
78229;BME280;74448;49.082;9.152;2024-03-07T01:19:15;99931.00;;;8.51;65.81
78229;BME280;74448;49.082;9.152;2024-03-07T01:21:42;99925.00;;;8.49;65.30
78229;BME280;74448;49.082;9.152;2024-03-07T01:24:09;99912.28;;;8.41;65.43
78229;BME280;74448;49.082;9.152;2024-03-07T01:26:35;99924.16;;;8.48;65.68
78229;BME280;74448;49.082;9.152;2024-03-07T01:29:02;99925.06;;;8.47;65.61
78229;BME280;74448;49.082;9.152;2024-03-07T01:31:29;99921.69;;;8.45;65.54
78229;BME280;74448;49.082;9.152;2024-03-07T01:33:55;99919.06;;;8.45;65.23
78229;BME280;74448;49.082;9.152;2024-03-07T01:36:22;99916.59;;;8.42;65.39
78229;BME280;74448;49.082;9.152;2024-03-07T01:38:49;99918.28;;;8.43;65.67
78229;BME280;74448;49.082;9.152;2024-03-07T01:41:15;99920.16;;;8.41;65.51
78229;BME280;74448;49.082;9.152;2024-03-07T01:43:42;99921.00;;;8.42;65.57
78229;BME280;74448;49.082;9.152;2024-03-07T01:46:10;99918.47;;;8.40;65.81
78229;BME280;74448;49.082;9.152;2024-03-07T01:48:37;99911.50;;;8.39;65.51
78229;BME280;74448;49.082;9.152;2024-03-07T01:51:05;99906.22;;;8.39;65.44
78229;BME280;74448;49.082;9.152;2024-03-07T01:53:32;99900.22;;;8.37;65.64
78229;BME280;74448;49.082;9.152;2024-03-07T01:56:00;99901.06;;;8.38;65.66
78229;BME280;74448;49.082;9.152;2024-03-07T01:58:29;99892.44;;;8.34;65.58
78229;BME280;74448;49.082;9.152;2024-03-07T02:00:58;99895.94;;;8.35;65.68
78229;BME280;74448;49.082;9.152;2024-03-07T02:03:25;99889.06;;;8.32;65.53
78229;BME280;74448;49.082;9.152;2024-03-07T02:05:52;99885.66;;;8.30;65.50
78229;BME280;74448;49.082;9.152;2024-03-07T02:08:19;99888.28;;;8.30;65.48
78229;BME280;74448;49.082;9.152;2024-03-07T02:10:46;99875.66;;;8.21;65.51
78229;BME280;74448;49.082;9.152;2024-03-07T02:13:13;99896.19;;;8.30;65.46
78229;BME280;74448;49.082;9.152;2024-03-07T02:15:40;99894.50;;;8.29;65.64
78229;BME280;74448;49.082;9.152;2024-03-07T02:18:08;99882.28;;;8.28;65.63
78229;BME280;74448;49.082;9.152;2024-03-07T02:20:36;99887.63;;;8.27;65.59
78229;BME280;74448;49.082;9.152;2024-03-07T02:23:02;99884.16;;;8.26;65.56
78229;BME280;74448;49.082;9.152;2024-03-07T02:25:30;99874.72;;;8.22;65.54
78229;BME280;74448;49.082;9.152;2024-03-07T02:27:58;99872.88;;;8.24;65.45
78229;BME280;74448;49.082;9.152;2024-03-07T02:30:24;99871.16;;;8.23;65.49
78229;BME280;74448;49.082;9.152;2024-03-07T02:32:51;99861.25;;;8.12;65.51
78229;BME280;74448;49.082;9.152;2024-03-07T02:35:22;99864.38;;;8.19;65.38
78229;BME280;74448;49.082;9.152;2024-03-07T02:37:50;99868.78;;;8.18;65.59
78229;BME280;74448;49.082;9.152;2024-03-07T02:40:17;99866.34;;;8.15;65.48
78229;BME280;74448;49.082;9.152;2024-03-07T02:42:43;99866.16;;;8.18;65.46
78229;BME280;74448;49.082;9.152;2024-03-07T02:45:10;99851.91;;;8.07;65.68
78229;BME280;74448;49.082;9.152;2024-03-07T02:47:41;99865.47;;;8.15;65.54
78229;BME280;74448;49.082;9.152;2024-03-07T02:50:10;99862.09;;;8.13;65.55
78229;BME280;74448;49.082;9.152;2024-03-07T02:52:36;99854.47;;;8.08;65.46
78229;BME280;74448;49.082;9.152;2024-03-07T02:55:03;99863.88;;;8.12;65.43
78229;BME280;74448;49.082;9.152;2024-03-07T02:57:31;99856.25;;;8.08;65.42
78229;BME280;74448;49.082;9.152;2024-03-07T02:59:58;99843.53;;;8.00;65.58
78229;BME280;74448;49.082;9.152;2024-03-07T03:02:25;99858.88;;;8.08;65.58
78229;BME280;74448;49.082;9.152;2024-03-07T03:04:52;99857.16;;;8.07;65.62
78229;BME280;74448;49.082;9.152;2024-03-07T03:07:18;99846.75;;;8.05;65.50
78229;BME280;74448;49.082;9.152;2024-03-07T03:09:45;99853.91;;;8.03;65.51
78229;BME280;74448;49.082;9.152;2024-03-07T03:12:12;99859.91;;;8.05;65.66
78229;BME280;74448;49.082;9.152;2024-03-07T03:14:38;99858.31;;;8.03;65.49
78229;BME280;74448;49.082;9.152;2024-03-07T03:17:06;99849.66;;;8.01;65.61
78229;BME280;74448;49.082;9.152;2024-03-07T03:19:35;99851.44;;;8.00;65.64
78229;BME280;74448;49.082;9.152;2024-03-07T03:22:02;99849.66;;;8.01;65.06
78229;BME280;74448;49.082;9.152;2024-03-07T03:24:30;99863.81;;;7.98;65.63
78229;BME280;74448;49.082;9.152;2024-03-07T03:26:57;99859.44;;;7.98;65.58
78229;BME280;74448;49.082;9.152;2024-03-07T03:29:24;99844.75;;;7.94;65.76
78229;BME280;74448;49.082;9.152;2024-03-07T03:31:51;99862.13;;;7.97;65.75
78229;BME280;74448;49.082;9.152;2024-03-07T03:34:18;99851.75;;;7.94;65.81
78229;BME280;74448;49.082;9.152;2024-03-07T03:36:44;99864.09;;;7.93;65.31
78229;BME280;74448;49.082;9.152;2024-03-07T03:39:11;99861.44;;;7.93;65.38
78229;BME280;74448;49.082;9.152;2024-03-07T03:41:40;99865.81;;;7.94;65.69
78229;BME280;74448;49.082;9.152;2024-03-07T03:44:06;99858.81;;;7.93;65.64
78229;BME280;74448;49.082;9.152;2024-03-07T03:46:34;99851.19;;;7.89;65.77
78229;BME280;74448;49.082;9.152;2024-03-07T03:49:00;99859.88;;;7.91;65.13
78229;BME280;74448;49.082;9.152;2024-03-07T03:51:27;99852.97;;;7.88;65.22
78229;BME280;74448;49.082;9.152;2024-03-07T03:53:54;99844.66;;;7.80;65.52
78229;BME280;74448;49.082;9.152;2024-03-07T03:56:21;99865.19;;;7.89;65.29
78229;BME280;74448;49.082;9.152;2024-03-07T03:58:47;99861.81;;;7.87;65.47
78229;BME280;74448;49.082;9.152;2024-03-07T04:01:14;99850.72;;;7.82;65.46
78229;BME280;74448;49.082;9.152;2024-03-07T04:03:42;99855.97;;;7.82;65.60
78229;BME280;74448;49.082;9.152;2024-03-07T04:06:13;99847.13;;;7.83;65.29
78229;BME280;74448;49.082;9.152;2024-03-07T04:08:40;99850.78;;;7.81;65.47
78229;BME280;74448;49.082;9.152;2024-03-07T04:11:07;99849.00;;;7.81;65.36
78229;BME280;74448;49.082;9.152;2024-03-07T04:13:36;99849.25;;;7.77;65.72
78229;BME280;74448;49.082;9.152;2024-03-07T04:16:03;99850.88;;;7.79;65.72
78229;BME280;74448;49.082;9.152;2024-03-07T04:18:30;99855.28;;;7.79;65.41
78229;BME280;74448;49.082;9.152;2024-03-07T04:20:58;99844.00;;;7.77;65.92
78229;BME280;74448;49.082;9.152;2024-03-07T04:23:25;99845.72;;;7.78;65.78
78229;BME280;74448;49.082;9.152;2024-03-07T04:25:52;99852.94;;;7.74;65.23
78229;BME280;74448;49.082;9.152;2024-03-07T04:28:19;99843.31;;;7.73;65.56
78229;BME280;74448;49.082;9.152;2024-03-07T04:30:45;99854.63;;;7.75;65.77
78229;BME280;74448;49.082;9.152;2024-03-07T04:33:12;99843.31;;;7.73;65.35
78229;BME280;74448;49.082;9.152;2024-03-07T04:35:39;99850.47;;;7.71;65.91
78229;BME280;74448;49.082;9.152;2024-03-07T04:38:06;99845.34;;;7.68;65.45
78229;BME280;74448;49.082;9.152;2024-03-07T04:40:38;99843.56;;;7.68;65.21
78229;BME280;74448;49.082;9.152;2024-03-07T04:43:05;99835.00;;;7.65;65.22
78229;BME280;74448;49.082;9.152;2024-03-07T04:45:32;99846.31;;;7.67;65.30
78229;BME280;74448;49.082;9.152;2024-03-07T04:47:58;99835.94;;;7.64;65.44
78229;BME280;74448;49.082;9.152;2024-03-07T04:50:25;99843.66;;;7.67;65.33
78229;BME280;74448;49.082;9.152;2024-03-07T04:52:53;99831.63;;;7.63;65.43
78229;BME280;74448;49.082;9.152;2024-03-07T04:55:19;99844.03;;;7.61;65.26
78229;BME280;74448;49.082;9.152;2024-03-07T04:57:46;99836.88;;;7.63;65.61
78229;BME280;74448;49.082;9.152;2024-03-07T05:00:14;99843.09;;;7.62;65.18
78229;BME280;74448;49.082;9.152;2024-03-07T05:02:45;99841.41;;;7.61;65.70
78229;BME280;74448;49.082;9.152;2024-03-07T05:05:12;99835.34;;;7.59;65.18
78229;BME280;74448;49.082;9.152;2024-03-07T05:07:40;99840.78;;;7.56;65.38
78229;BME280;74448;49.082;9.152;2024-03-07T05:10:07;99841.56;;;7.58;65.04
78229;BME280;74448;49.082;9.152;2024-03-07T05:12:34;99843.41;;;7.56;65.16
78229;BME280;74448;49.082;9.152;2024-03-07T05:15:00;99847.78;;;7.57;65.25
78229;BME280;74448;49.082;9.152;2024-03-07T05:17:27;99844.34;;;7.55;65.53
78229;BME280;74448;49.082;9.152;2024-03-07T05:19:55;99834.84;;;7.52;65.68
78229;BME280;74448;49.082;9.152;2024-03-07T05:22:22;99836.63;;;7.52;65.54
78229;BME280;74448;49.082;9.152;2024-03-07T05:24:51;99839.25;;;7.52;65.29
78229;BME280;74448;49.082;9.152;2024-03-07T05:27:18;99836.72;;;7.50;65.55
78229;BME280;74448;49.082;9.152;2024-03-07T05:29:44;99833.25;;;7.49;65.38
78229;BME280;74448;49.082;9.152;2024-03-07T05:32:24;99851.66;;;7.49;65.10
78229;BME280;74448;49.082;9.152;2024-03-07T05:34:54;99840.38;;;7.47;65.11
78229;BME280;74448;49.082;9.152;2024-03-07T05:37:22;99839.44;;;7.48;65.18
78229;BME280;74448;49.082;9.152;2024-03-07T05:39:49;99843.00;;;7.47;65.58
78229;BME280;74448;49.082;9.152;2024-03-07T05:42:16;99838.66;;;7.46;65.37
78229;BME280;74448;49.082;9.152;2024-03-07T05:44:44;99842.31;;;7.44;65.14
78229;BME280;74448;49.082;9.152;2024-03-07T05:47:10;99829.25;;;7.42;65.29
78229;BME280;74448;49.082;9.152;2024-03-07T05:49:40;99844.09;;;7.43;65.31
78229;BME280;74448;49.082;9.152;2024-03-07T05:52:07;99821.88;;;7.33;65.73
78229;BME280;74448;49.082;9.152;2024-03-07T05:54:33;99818.47;;;7.31;65.60
78229;BME280;74448;49.082;9.152;2024-03-07T05:57:00;99839.88;;;7.41;65.25
78229;BME280;74448;49.082;9.152;2024-03-07T05:59:28;99839.03;;;7.40;65.67
78229;BME280;74448;49.082;9.152;2024-03-07T06:01:58;99840.81;;;7.40;65.56
78229;BME280;74448;49.082;9.152;2024-03-07T06:04:25;99834.69;;;7.39;65.72
78229;BME280;74448;49.082;9.152;2024-03-07T06:06:51;99842.75;;;7.36;65.32
78229;BME280;74448;49.082;9.152;2024-03-07T06:09:18;99840.13;;;7.36;65.83
78229;BME280;74448;49.082;9.152;2024-03-07T06:11:50;99840.28;;;7.33;65.46
78229;BME280;74448;49.082;9.152;2024-03-07T06:14:17;99833.34;;;7.32;65.38
78229;BME280;74448;49.082;9.152;2024-03-07T06:16:44;99824.19;;;7.23;65.33
78229;BME280;74448;49.082;9.152;2024-03-07T06:19:11;99849.13;;;7.32;65.28
78229;BME280;74448;49.082;9.152;2024-03-07T06:21:38;99844.88;;;7.30;65.34
78229;BME280;74448;49.082;9.152;2024-03-07T06:24:09;99844.03;;;7.29;65.50
78229;BME280;74448;49.082;9.152;2024-03-07T06:26:38;99838.75;;;7.29;65.50
78229;BME280;74448;49.082;9.152;2024-03-07T06:29:16;99838.84;;;7.28;65.41
78229;BME280;74448;49.082;9.152;2024-03-07T06:31:45;99842.41;;;7.27;65.75
78229;BME280;74448;49.082;9.152;2024-03-07T06:34:15;99837.22;;;7.25;65.70
78229;BME280;74448;49.082;9.152;2024-03-07T06:36:41;99835.59;;;7.22;65.46
78229;BME280;74448;49.082;9.152;2024-03-07T06:39:08;99830.44;;;7.21;65.38
78229;BME280;74448;49.082;9.152;2024-03-07T06:41:37;99835.69;;;7.21;65.13
78229;BME280;74448;49.082;9.152;2024-03-07T06:44:04;99822.03;;;7.14;65.65
78229;BME280;74448;49.082;9.152;2024-03-07T06:46:31;99846.22;;;7.21;65.51
78229;BME280;74448;49.082;9.152;2024-03-07T06:48:58;99841.13;;;7.18;65.91
78229;BME280;74448;49.082;9.152;2024-03-07T06:51:25;99842.81;;;7.19;65.41
78229;BME280;74448;49.082;9.152;2024-03-07T06:53:52;99859.53;;;7.18;65.80
78229;BME280;74448;49.082;9.152;2024-03-07T06:56:19;99850.78;;;7.17;65.72
78229;BME280;74448;49.082;9.152;2024-03-07T06:58:45;99837.06;;;7.12;65.92
78229;BME280;74448;49.082;9.152;2024-03-07T07:01:13;99826.94;;;7.05;65.63
78229;BME280;74448;49.082;9.152;2024-03-07T07:03:41;99841.38;;;7.13;65.21
78229;BME280;74448;49.082;9.152;2024-03-07T07:06:11;99838.91;;;7.10;64.96
78229;BME280;74448;49.082;9.152;2024-03-07T07:08:38;99842.41;;;7.11;65.21
78229;BME280;74448;49.082;9.152;2024-03-07T07:11:05;99816.78;;;6.98;66.00
78229;BME280;74448;49.082;9.152;2024-03-07T07:13:32;99836.47;;;7.07;65.89
78229;BME280;74448;49.082;9.152;2024-03-07T07:15:59;99824.31;;;7.05;65.63
78229;BME280;74448;49.082;9.152;2024-03-07T07:18:26;99830.41;;;7.05;65.47
78229;BME280;74448;49.082;9.152;2024-03-07T07:20:53;99830.34;;;7.07;65.83
78229;BME280;74448;49.082;9.152;2024-03-07T07:23:19;99824.22;;;7.06;65.56
78229;BME280;74448;49.082;9.152;2024-03-07T07:25:47;99828.72;;;7.04;65.57
78229;BME280;74448;49.082;9.152;2024-03-07T07:28:13;99831.25;;;7.06;65.38
78229;BME280;74448;49.082;9.152;2024-03-07T07:30:42;99834.09;;;7.03;65.08
78229;BME280;74448;49.082;9.152;2024-03-07T07:33:11;99826.34;;;6.99;65.80
78229;BME280;74448;49.082;9.152;2024-03-07T07:35:39;99829.81;;;7.00;65.57
78229;BME280;74448;49.082;9.152;2024-03-07T07:38:05;99820.25;;;6.99;65.56
78229;BME280;74448;49.082;9.152;2024-03-07T07:40:33;99823.63;;;7.01;65.40
78229;BME280;74448;49.082;9.152;2024-03-07T07:43:00;99812.44;;;6.97;65.77
78229;BME280;74448;49.082;9.152;2024-03-07T07:45:27;99824.66;;;6.98;65.60
78229;BME280;74448;49.082;9.152;2024-03-07T07:47:54;99816.00;;;6.96;65.75
78229;BME280;74448;49.082;9.152;2024-03-07T07:50:23;99819.47;;;6.97;65.42
78229;BME280;74448;49.082;9.152;2024-03-07T07:52:56;99822.94;;;6.97;65.72
78229;BME280;74448;49.082;9.152;2024-03-07T07:55:25;99818.72;;;6.95;65.74
78229;BME280;74448;49.082;9.152;2024-03-07T07:57:56;99821.25;;;6.96;65.93
78229;BME280;74448;49.082;9.152;2024-03-07T08:00:27;99815.25;;;6.94;65.32
78229;BME280;74448;49.082;9.152;2024-03-07T08:02:58;99817.03;;;6.94;65.59
78229;BME280;74448;49.082;9.152;2024-03-07T08:05:30;99816.16;;;6.93;65.81
78229;BME280;74448;49.082;9.152;2024-03-07T08:08:01;99811.00;;;6.92;65.61
78229;BME280;74448;49.082;9.152;2024-03-07T08:10:37;99811.84;;;6.92;65.22
78229;BME280;74448;49.082;9.152;2024-03-07T08:13:05;99785.47;;;6.78;65.43
78229;BME280;74448;49.082;9.152;2024-03-07T08:15:39;99798.09;;;6.87;65.91
78229;BME280;74448;49.082;9.152;2024-03-07T08:18:06;99805.84;;;6.90;65.85
78229;BME280;74448;49.082;9.152;2024-03-07T08:20:37;99801.56;;;6.88;65.60
78229;BME280;74448;49.082;9.152;2024-03-07T08:23:04;99803.28;;;6.89;65.83
78229;BME280;74448;49.082;9.152;2024-03-07T08:25:31;99796.47;;;6.85;65.12
78229;BME280;74448;49.082;9.152;2024-03-07T08:27:58;99795.56;;;6.86;65.78
78229;BME280;74448;49.082;9.152;2024-03-07T08:30:24;99793.94;;;6.83;65.45
78229;BME280;74448;49.082;9.152;2024-03-07T08:32:55;99795.63;;;6.84;65.90
78229;BME280;74448;49.082;9.152;2024-03-07T08:35:23;99798.25;;;6.84;65.68
78229;BME280;74448;49.082;9.152;2024-03-07T08:37:54;99798.41;;;6.81;65.95
78229;BME280;74448;49.082;9.152;2024-03-07T08:40:26;99800.88;;;6.84;65.27
78229;BME280;74448;49.082;9.152;2024-03-07T08:42:59;99794.78;;;6.84;65.61
78229;BME280;74448;49.082;9.152;2024-03-07T08:45:26;99787.06;;;6.81;65.84
78229;BME280;74448;49.082;9.152;2024-03-07T08:47:55;99791.41;;;6.82;64.93
78229;BME280;74448;49.082;9.152;2024-03-07T08:50:24;99793.94;;;6.83;64.96
78229;BME280;74448;49.082;9.152;2024-03-07T08:52:53;99790.47;;;6.83;65.86
78229;BME280;74448;49.082;9.152;2024-03-07T08:55:21;99780.03;;;6.81;65.55
78229;BME280;74448;49.082;9.152;2024-03-07T08:57:48;99792.41;;;6.79;65.86
78229;BME280;74448;49.082;9.152;2024-03-07T09:00:16;99794.88;;;6.82;65.67
78229;BME280;74448;49.082;9.152;2024-03-07T09:02:59;99794.03;;;6.82;65.67
78229;BME280;74448;49.082;9.152;2024-03-07T09:05:30;99797.56;;;6.81;64.86
78229;BME280;74448;49.082;9.152;2024-03-07T09:08:00;99782.06;;;6.76;65.06
78229;BME280;74448;49.082;9.152;2024-03-07T09:10:27;99784.63;;;6.78;64.88
78229;BME280;74448;49.082;9.152;2024-03-07T09:12:57;99787.16;;;6.79;65.75
78229;BME280;74448;49.082;9.152;2024-03-07T09:15:24;99784.44;;;6.81;65.23
78229;BME280;74448;49.082;9.152;2024-03-07T09:17:51;99785.47;;;6.78;65.21
78229;BME280;74448;49.082;9.152;2024-03-07T09:20:19;99779.38;;;6.78;64.97
78229;BME280;74448;49.082;9.152;2024-03-07T09:22:47;99779.44;;;6.76;65.23
78229;BME280;74448;49.082;9.152;2024-03-07T09:25:15;99778.50;;;6.77;65.31
78229;BME280;74448;49.082;9.152;2024-03-07T09:27:43;99776.81;;;6.76;65.42
78229;BME280;74448;49.082;9.152;2024-03-07T09:30:10;99769.88;;;6.75;65.64
78229;BME280;74448;49.082;9.152;2024-03-07T09:32:45;99775.88;;;6.77;65.45
78229;BME280;74448;49.082;9.152;2024-03-07T09:35:12;99775.97;;;6.76;65.41
78229;BME280;74448;49.082;9.152;2024-03-07T09:37:40;99771.75;;;6.73;65.02
78229;BME280;74448;49.082;9.152;2024-03-07T09:40:08;99767.34;;;6.73;65.19
78229;BME280;74448;49.082;9.152;2024-03-07T09:42:46;99765.63;;;6.72;65.43
78229;BME280;74448;49.082;9.152;2024-03-07T09:45:17;99767.25;;;6.75;65.42
78229;BME280;74448;49.082;9.152;2024-03-07T09:47:46;99767.25;;;6.75;65.42
78229;BME280;74448;49.082;9.152;2024-03-07T09:50:18;99768.94;;;6.76;65.71
78229;BME280;74448;49.082;9.152;2024-03-07T09:52:49;99770.72;;;6.76;65.08
78229;BME280;74448;49.082;9.152;2024-03-07T09:55:19;99773.44;;;6.74;65.22
78229;BME280;74448;49.082;9.152;2024-03-07T09:57:48;99762.13;;;6.72;65.68
78229;BME280;74448;49.082;9.152;2024-03-07T10:00:17;99758.66;;;6.71;64.91
78229;BME280;74448;49.082;9.152;2024-03-07T10:02:57;99744.16;;;6.64;65.20
78229;BME280;74448;49.082;9.152;2024-03-07T10:05:27;99748.50;;;6.65;64.86
78229;BME280;74448;49.082;9.152;2024-03-07T10:07:54;99760.28;;;6.74;65.08
78229;BME280;74448;49.082;9.152;2024-03-07T10:10:20;99762.06;;;6.73;64.83
78229;BME280;74448;49.082;9.152;2024-03-07T10:12:49;99753.34;;;6.73;65.12
78229;BME280;74448;49.082;9.152;2024-03-07T10:15:16;99754.25;;;6.72;65.00
78229;BME280;74448;49.082;9.152;2024-03-07T10:17:44;99747.16;;;6.74;65.45
78229;BME280;74448;49.082;9.152;2024-03-07T10:20:18;99756.72;;;6.75;65.05
78229;BME280;74448;49.082;9.152;2024-03-07T10:22:47;99742.06;;;6.71;65.24
78229;BME280;74448;49.082;9.152;2024-03-07T10:25:17;99752.41;;;6.74;64.75
78229;BME280;74448;49.082;9.152;2024-03-07T10:27:46;99742.84;;;6.73;64.88
78229;BME280;74448;49.082;9.152;2024-03-07T10:30:18;99746.31;;;6.73;65.50
78229;BME280;74448;49.082;9.152;2024-03-07T10:32:52;99741.91;;;6.74;65.62
78229;BME280;74448;49.082;9.152;2024-03-07T10:35:21;99746.22;;;6.75;65.13
78229;BME280;74448;49.082;9.152;2024-03-07T10:37:55;99741.91;;;6.74;65.33
78229;BME280;74448;49.082;9.152;2024-03-07T10:40:22;99735.97;;;6.70;65.45
78229;BME280;74448;49.082;9.152;2024-03-07T10:42:56;99739.28;;;6.74;65.25
78229;BME280;74448;49.082;9.152;2024-03-07T10:45:30;99738.34;;;6.75;64.72
78229;BME280;74448;49.082;9.152;2024-03-07T10:48:03;99724.47;;;6.73;65.12
78229;BME280;74448;49.082;9.152;2024-03-07T10:53:24;99734.78;;;6.76;65.50
78229;BME280;74448;49.082;9.152;2024-03-07T11:01:26;99718.00;;;6.79;64.68
78229;BME280;74448;49.082;9.152;2024-03-07T11:03:56;99714.69;;;6.75;65.44
78229;BME280;74448;49.082;9.152;2024-03-07T11:06:25;99713.75;;;6.76;64.71
78229;BME280;74448;49.082;9.152;2024-03-07T11:08:53;99715.28;;;6.80;65.18
78229;BME280;74448;49.082;9.152;2024-03-07T11:11:21;99713.44;;;6.82;64.84
78229;BME280;74448;49.082;9.152;2024-03-07T11:13:50;99709.03;;;6.83;64.69
78229;BME280;74448;49.082;9.152;2024-03-07T11:16:21;99710.88;;;6.81;65.29
78229;BME280;74448;49.082;9.152;2024-03-07T11:19:17;99702.84;;;6.84;65.16
78229;BME280;74448;49.082;9.152;2024-03-07T11:21:44;99695.78;;;6.84;65.05
78229;BME280;74448;49.082;9.152;2024-03-07T11:24:22;99695.88;;;6.83;64.50
78229;BME280;74448;49.082;9.152;2024-03-07T11:26:53;99696.56;;;6.86;64.84
78229;BME280;74448;49.082;9.152;2024-03-07T11:29:40;99690.38;;;6.87;64.52
78229;BME280;74448;49.082;9.152;2024-03-07T11:32:14;99684.19;;;6.88;64.65
78229;BME280;74448;49.082;9.152;2024-03-07T11:34:42;99676.31;;;6.88;64.77
78229;BME280;74448;49.082;9.152;2024-03-07T11:37:19;99671.03;;;6.88;64.39
78229;BME280;74448;49.082;9.152;2024-03-07T11:39:50;99670.03;;;6.91;64.59
78229;BME280;74448;49.082;9.152;2024-03-07T11:44:49;99660.38;;;6.91;64.86
78229;BME280;74448;49.082;9.152;2024-03-07T11:47:18;99656.63;;;6.95;64.75
78229;BME280;74448;49.082;9.152;2024-03-07T11:49:45;99658.31;;;6.96;64.60
78229;BME280;74448;49.082;9.152;2024-03-07T11:52:15;99653.91;;;6.97;64.40
78229;BME280;74448;49.082;9.152;2024-03-07T11:54:43;99656.47;;;6.98;64.11
78229;BME280;74448;49.082;9.152;2024-03-07T11:57:15;99637.72;;;6.89;64.30
78229;BME280;74448;49.082;9.152;2024-03-07T11:59:47;99652.06;;;6.99;63.97
78229;BME280;74448;49.082;9.152;2024-03-07T12:02:19;99636.97;;;7.03;64.58
78229;BME280;74448;49.082;9.152;2024-03-07T12:04:49;99644.75;;;7.04;64.70
78229;BME280;74448;49.082;9.152;2024-03-07T12:07:16;99642.88;;;7.06;63.92
78229;BME280;74448;49.082;9.152;2024-03-07T12:09:49;99626.25;;;7.06;64.49
78229;BME280;74448;49.082;9.152;2024-03-07T12:12:22;99640.06;;;7.09;64.56
78229;BME280;74448;49.082;9.152;2024-03-07T12:14:51;99636.44;;;7.12;64.47
78229;BME280;74448;49.082;9.152;2024-03-07T12:17:21;99638.13;;;7.13;64.08
78229;BME280;74448;49.082;9.152;2024-03-07T12:19:50;99629.28;;;7.14;64.21
78229;BME280;74448;49.082;9.152;2024-03-07T12:22:20;99624.81;;;7.16;64.30
78229;BME280;74448;49.082;9.152;2024-03-07T12:25:01;99625.56;;;7.18;63.79
78229;BME280;74448;49.082;9.152;2024-03-07T12:27:35;99629.03;;;7.18;64.04
78229;BME280;74448;49.082;9.152;2024-03-07T12:30:15;99621.97;;;7.19;64.07
78229;BME280;74448;49.082;9.152;2024-03-07T12:32:52;99624.38;;;7.23;63.91
78229;BME280;74448;49.082;9.152;2024-03-07T12:35:19;99620.03;;;7.22;64.54
78229;BME280;74448;49.082;9.152;2024-03-07T12:37:45;99612.91;;;7.24;64.60
78229;BME280;74448;49.082;9.152;2024-03-07T12:40:12;99613.50;;;7.30;63.95
78229;BME280;74448;49.082;9.152;2024-03-07T12:42:47;99611.81;;;7.29;64.23
78229;BME280;74448;49.082;9.152;2024-03-07T12:45:16;99614.31;;;7.30;64.70
78229;BME280;74448;49.082;9.152;2024-03-07T12:47:51;99614.16;;;7.33;64.18
78229;BME280;74448;49.082;9.152;2024-03-07T12:50:20;99607.88;;;7.36;63.87
78229;BME280;74448;49.082;9.152;2024-03-07T12:52:48;99599.91;;;7.37;64.37
78229;BME280;74448;49.082;9.152;2024-03-07T12:55:18;99603.25;;;7.39;64.47
78229;BME280;74448;49.082;9.152;2024-03-07T12:57:45;99606.66;;;7.41;64.76
78229;BME280;74448;49.082;9.152;2024-03-07T13:00:12;99597.94;;;7.41;63.88
78229;BME280;74448;49.082;9.152;2024-03-07T13:02:47;99602.16;;;7.43;64.11
78229;BME280;74448;49.082;9.152;2024-03-07T13:05:14;99601.22;;;7.44;64.32
78229;BME280;74448;49.082;9.152;2024-03-07T13:07:49;99599.34;;;7.46;64.11
78229;BME280;74448;49.082;9.152;2024-03-07T13:10:15;99598.22;;;7.51;64.19
78229;BME280;74448;49.082;9.152;2024-03-07T13:12:42;99595.78;;;7.47;63.76
78229;BME280;74448;49.082;9.152;2024-03-07T13:15:12;99602.53;;;7.52;64.26
78229;BME280;74448;49.082;9.152;2024-03-07T13:17:39;99594.66;;;7.52;63.98
78229;BME280;74448;49.082;9.152;2024-03-07T13:20:08;99597.09;;;7.55;64.38
78229;BME280;74448;49.082;9.152;2024-03-07T13:22:42;99590.81;;;7.57;64.63
78229;BME280;74448;49.082;9.152;2024-03-07T13:25:17;99585.75;;;7.54;63.91
78229;BME280;74448;49.082;9.152;2024-03-07T13:28:08;99595.03;;;7.60;64.03